Time;durP1;ratioP1;P1;durP2;ratioP2;P2;SDS_P1;SDS_P2;PMS_P1;PMS_P2;Temp;Humidity;BMP_temperature;BMP_pressure;BME280_temperature;BME280_humidity;BME280_pressure;Samples;Min_cycle;Max_cycle;Signal;HPM_P1;HPM_P2
2023/04/06 00:00:59;;;;;;;;;;;;;;;19.10;60.48;98876.84;2077538;28;19929;-58
2023/04/06 00:02:00;;;;;;;;;;;;;;;19.10;60.48;98880.38;2078489;28;19935;-54
2023/04/06 00:03:01;;;;;;;;;;;;;;;19.08;60.75;98879.72;2079722;28;19929;-54
2023/04/06 00:04:02;;;;;;;;;;;;;;;19.08;60.65;98884.28;2082756;28;19925;-54
2023/04/06 00:05:03;;;;;;;;;;;;;;;19.05;60.41;98877.44;2083423;28;19928;-55
2023/04/06 00:06:05;;;;;;;;;;;;;;;19.05;60.61;98880.13;2083366;28;19931;-57
2023/04/06 00:07:07;;;;;;;;;;;;;;;19.06;60.75;98872.94;2080770;28;20020;-54
2023/04/06 00:08:09;;;;;;;;;;;;;;;19.03;60.90;98881.38;2080614;28;20019;-54
2023/04/06 00:09:09;;;;;;;;;;;;;;;19.02;60.65;98880.53;2079283;28;19975;-50
2023/04/06 00:10:11;;;;;;;;;;;;;;;19.02;60.88;98874.34;2078867;28;20390;-56
2023/04/06 00:11:11;;;;;;;;;;;;;;;19.01;60.93;98870.81;2078003;28;19924;-50
2023/04/06 00:12:13;;;;;;;;;;;;;;;19.00;60.79;98876.38;2079069;28;19929;-53
2023/04/06 00:13:13;;;;;;;;;;;;;;;18.98;60.79;98872.06;2077735;28;20015;-54
2023/04/06 00:14:17;;;;;;;;;;;;;;;18.97;60.90;98870.41;2078522;28;20572;-57
2023/04/06 00:15:17;;;;;;;;;;;;;;;18.95;60.87;98872.47;2078776;28;19925;-57
2023/04/06 00:16:19;;;;;;;;;;;;;;;18.96;60.97;98873.28;2080606;28;20020;-57
2023/04/06 00:17:20;;;;;;;;;;;;;;;18.95;61.22;98871.63;2077623;28;20268;-58
2023/04/06 00:18:22;;;;;;;;;;;;;;;18.95;61.35;98866.25;2077671;28;19960;-59
2023/04/06 00:19:22;;;;;;;;;;;;;;;18.94;60.89;98867.25;2083287;28;20050;-50
2023/04/06 00:20:24;;;;;;;;;;;;;;;18.93;60.94;98869.13;2073840;28;20012;-55
2023/04/06 00:21:25;;;;;;;;;;;;;;;18.91;60.91;98868.50;2069552;28;20003;-54
2023/04/06 00:22:28;;;;;;;;;;;;;;;18.91;61.21;98873.88;2069194;28;19928;-56
2023/04/06 00:23:29;;;;;;;;;;;;;;;18.92;61.07;98874.72;2070877;28;20600;-53
2023/04/06 00:24:30;;;;;;;;;;;;;;;18.92;61.09;98875.53;2068210;28;19932;-56
2023/04/06 00:25:31;;;;;;;;;;;;;;;18.90;61.29;98877.59;2073152;28;19975;-53
2023/04/06 00:26:32;;;;;;;;;;;;;;;18.89;61.32;98886.69;2077778;28;20323;-54
2023/04/06 00:27:33;;;;;;;;;;;;;;;18.89;61.70;98875.94;2076101;28;19987;-55
2023/04/06 00:28:34;;;;;;;;;;;;;;;18.90;61.50;98882.16;2077432;28;19939;-49
2023/04/06 00:29:35;;;;;;;;;;;;;;;18.89;61.31;98877.81;2076774;28;19929;-51
2023/04/06 00:30:36;;;;;;;;;;;;;;;18.86;61.72;98878.19;2076612;28;19976;-52
2023/04/06 00:31:37;;;;;;;;;;;;;;;18.86;61.62;98881.72;2078669;28;19966;-55
2023/04/06 00:32:38;;;;;;;;;;;;;;;18.85;61.53;98885.41;2077597;28;22007;-50
2023/04/06 00:33:39;;;;;;;;;;;;;;;18.86;61.29;98888.94;2077556;28;20012;-58
2023/04/06 00:34:41;;;;;;;;;;;;;;;18.85;61.60;98879.22;2079051;28;20430;-48
2023/04/06 00:35:41;;;;;;;;;;;;;;;18.85;61.31;98880.06;2077079;28;20404;-53
2023/04/06 00:36:43;;;;;;;;;;;;;;;18.82;61.77;98880.44;2077835;28;19943;-53
2023/04/06 00:37:45;;;;;;;;;;;;;;;18.82;61.50;98880.44;2078964;28;19936;-58
2023/04/06 00:38:47;;;;;;;;;;;;;;;18.82;61.45;98887.69;2076743;28;19948;-55
2023/04/06 00:39:47;;;;;;;;;;;;;;;18.79;61.69;98880.84;2077633;28;20556;-54
2023/04/06 00:40:49;;;;;;;;;;;;;;;18.79;61.83;98883.53;2078713;28;19926;-55
2023/04/06 00:41:51;;;;;;;;;;;;;;;18.80;61.54;98885.19;2079468;28;19929;-51
2023/04/06 00:42:53;;;;;;;;;;;;;;;18.79;61.43;98886.22;2079128;28;19999;-56
2023/04/06 00:43:53;;;;;;;;;;;;;;;18.78;61.99;98881.88;2076456;28;19972;-53
2023/04/06 00:44:55;;;;;;;;;;;;;;;18.79;61.54;98883.53;2079996;28;20276;-53
2023/04/06 00:45:56;;;;;;;;;;;;;;;18.77;61.75;98888.28;2087469;28;20406;-54
2023/04/06 00:46:57;;;;;;;;;;;;;;;18.75;61.85;98885.81;2083889;28;19943;-51
2023/04/06 00:47:58;;;;;;;;;;;;;;;18.76;61.52;98881.25;2085918;28;19968;-52
2023/04/06 00:49:00;;;;;;;;;;;;;;;18.73;61.53;98878.94;2086469;28;19932;-57
2023/04/06 00:50:00;;;;;;;;;;;;;;;18.74;61.38;98885.97;2086376;28;19929;-53
2023/04/06 00:51:02;;;;;;;;;;;;;;;18.73;61.54;98887.81;2087094;28;19924;-56
2023/04/06 00:52:02;;;;;;;;;;;;;;;18.70;62.20;98893.59;2085606;28;19924;-48
2023/04/06 00:53:05;;;;;;;;;;;;;;;18.71;61.68;98883.66;2088600;28;19929;-54
2023/04/06 00:54:06;;;;;;;;;;;;;;;18.70;61.85;98882.84;2084044;28;20528;-59
2023/04/06 00:55:08;;;;;;;;;;;;;;;18.71;61.90;98884.50;2085828;28;19933;-49
2023/04/06 00:56:09;;;;;;;;;;;;;;;18.69;61.99;98886.56;2087246;28;19964;-52
2023/04/06 00:57:11;;;;;;;;;;;;;;;18.70;61.64;98887.38;2076998;28;20028;-55
2023/04/06 00:58:12;;;;;;;;;;;;;;;18.69;61.80;98889.25;2085642;28;19964;-52
2023/04/06 00:59:14;;;;;;;;;;;;;;;18.69;61.85;98888.41;2087203;28;20271;-50
2023/04/06 01:00:15;;;;;;;;;;;;;;;18.67;61.55;98877.03;2084894;28;19972;-51
2023/04/06 01:01:16;;;;;;;;;;;;;;;18.67;61.56;98877.03;2088154;28;19936;-50
2023/04/06 01:02:17;;;;;;;;;;;;;;;18.66;61.52;98881.56;2084701;28;20019;-51
2023/04/06 01:03:18;;;;;;;;;;;;;;;18.67;61.61;98882.41;2082346;28;19925;-48
2023/04/06 01:04:19;;;;;;;;;;;;;;;18.66;61.84;98886.09;2081453;28;19936;-56
2023/04/06 01:05:20;;;;;;;;;;;;;;;18.66;61.92;98883.41;2078577;28;19924;-51
2023/04/06 01:06:21;;;;;;;;;;;;;;;18.66;61.74;98881.56;2080643;28;19940;-55
2023/04/06 01:07:24;;;;;;;;;;;;;;;18.65;61.74;98884.47;2077972;28;19941;-59
2023/04/06 01:08:26;;;;;;;;;;;;;;;18.64;61.80;98883.63;2077880;28;20165;-59
2023/04/06 01:09:28;;;;;;;;;;;;;;;18.64;61.91;98883.63;2075688;28;20428;-56
2023/04/06 01:10:29;;;;;;;;;;;;;;;18.63;61.58;98886.50;2076201;28;20596;-51
2023/04/06 01:11:31;;;;;;;;;;;;;;;18.63;61.70;98878.44;2076056;28;19940;-52
2023/04/06 01:12:31;;;;;;;;;;;;;;;18.60;61.86;98881.53;2078502;28;19932;-48
2023/04/06 01:13:33;;;;;;;;;;;;;;;18.60;61.76;98881.53;2078557;28;20032;-52
2023/04/06 01:14:33;;;;;;;;;;;;;;;18.60;61.80;98881.53;2078365;28;19924;-48
2023/04/06 01:15:38;;;;;;;;;;;;;;;18.58;61.69;98872.84;2074998;28;20414;-60
2023/04/06 01:16:38;;;;;;;;;;;;;;;18.57;61.88;98880.06;2078568;28;20028;-58
2023/04/06 01:17:40;;;;;;;;;;;;;;;18.56;61.89;98875.72;2073954;28;20271;-54
2023/04/06 01:18:42;;;;;;;;;;;;;;;18.54;62.27;98877.78;2076964;28;19987;-58
2023/04/06 01:19:45;;;;;;;;;;;;;;;18.54;61.66;98881.28;2076194;28;19933;-55
2023/04/06 01:20:45;;;;;;;;;;;;;;;18.54;62.18;98883.16;2083332;28;20413;-57
2023/04/06 01:21:49;;;;;;;;;;;;;;;18.54;61.84;98878.59;2080396;28;20058;-59
2023/04/06 01:22:50;;;;;;;;;;;;;;;18.54;61.96;98888.53;2075721;28;20022;-50
2023/04/06 01:23:52;;;;;;;;;;;;;;;18.53;61.88;98882.31;2076266;28;19932;-54
2023/04/06 01:24:53;;;;;;;;;;;;;;;18.56;61.57;98886.47;2073899;28;20083;-54
2023/04/06 01:25:54;;;;;;;;;;;;;;;18.53;61.84;98885.00;2078690;28;19935;-52
2023/04/06 01:26:56;;;;;;;;;;;;;;;18.53;61.86;98886.88;2076675;28;20047;-51
2023/04/06 01:27:57;;;;;;;;;;;;;;;18.51;61.87;98887.06;2073485;28;21785;-53
2023/04/06 01:28:58;;;;;;;;;;;;;;;18.51;61.81;98888.91;2076747;28;20027;-52
2023/04/06 01:30:00;;;;;;;;;;;;;;;18.49;62.18;98881.03;2076023;28;19949;-50
2023/04/06 01:31:00;;;;;;;;;;;;;;;18.48;62.16;98887.47;2077432;28;19982;-51
2023/04/06 01:32:02;;;;;;;;;;;;;;;18.47;62.08;98880.44;2083303;28;19924;-55
2023/04/06 01:33:02;;;;;;;;;;;;;;;18.50;62.23;98877.34;2085782;28;19971;-54
2023/04/06 01:34:04;;;;;;;;;;;;;;;18.50;62.29;98881.91;2080091;28;19932;-53
2023/04/06 01:35:05;;;;;;;;;;;;;;;18.48;62.13;98878.56;2077462;28;19929;-53
2023/04/06 01:36:07;;;;;;;;;;;;;;;18.44;62.35;98883.53;2074750;28;21580;-53
2023/04/06 01:37:07;;;;;;;;;;;;;;;18.45;61.97;98884.34;2078598;28;20391;-50
2023/04/06 01:38:10;;;;;;;;;;;;;;;18.44;62.07;98874.59;2075897;28;19932;-54
2023/04/06 01:39:11;;;;;;;;;;;;;;;18.42;62.30;98880.19;2075942;28;20418;-51
2023/04/06 01:40:13;;;;;;;;;;;;;;;18.40;62.13;98884.09;2076245;28;19929;-55
2023/04/06 01:41:14;;;;;;;;;;;;;;;18.40;62.14;98876.03;2075208;28;20059;-54
2023/04/06 01:42:15;;;;;;;;;;;;;;;18.42;62.07;98885.56;2069755;28;19929;-51
2023/04/06 01:43:16;;;;;;;;;;;;;;;18.41;62.28;98883.88;2077693;28;19968;-53
2023/04/06 01:44:18;;;;;;;;;;;;;;;18.41;61.88;98877.69;2075922;28;20444;-55
2023/04/06 01:45:18;;;;;;;;;;;;;;;18.38;62.14;98886.13;2074092;28;19937;-54
2023/04/06 01:46:20;;;;;;;;;;;;;;;18.37;62.13;98879.94;2076973;28;19933;-54
2023/04/06 01:47:20;;;;;;;;;;;;;;;18.37;62.14;98879.94;2075122;28;20622;-52
2023/04/06 01:48:22;;;;;;;;;;;;;;;18.35;61.98;98883.84;2076289;28;19928;-52
2023/04/06 01:49:22;;;;;;;;;;;;;;;18.36;62.20;98885.50;2077006;28;19960;-54
2023/04/06 01:50:24;;;;;;;;;;;;;;;18.35;61.97;98884.66;2075916;28;19952;-55
2023/04/06 01:51:25;;;;;;;;;;;;;;;18.32;62.00;98882.38;2076305;28;19990;-51
2023/04/06 01:52:30;;;;;;;;;;;;;;;18.31;62.35;98881.56;2070465;28;19986;-51
2023/04/06 01:53:32;;;;;;;;;;;;;;;18.30;62.06;98882.59;2076907;28;19928;-56
2023/04/06 01:54:33;;;;;;;;;;;;;;;18.31;62.23;98881.56;2077806;28;20361;-57
2023/04/06 01:55:34;;;;;;;;;;;;;;;18.30;62.08;98882.59;2081459;28;19936;-55
2023/04/06 01:56:35;;;;;;;;;;;;;;;18.30;62.20;98877.22;2075848;28;19936;-56
2023/04/06 01:57:36;;;;;;;;;;;;;;;18.29;62.05;98880.09;2076249;28;20019;-55
2023/04/06 01:58:37;;;;;;;;;;;;;;;18.29;62.36;98874.72;2077177;28;19943;-55
2023/04/06 01:59:38;;;;;;;;;;;;;;;18.27;62.12;98877.59;2077643;28;19971;-59
2023/04/06 02:00:40;;;;;;;;;;;;;;;18.24;62.09;98875.28;2076392;28;19932;-58
2023/04/06 02:01:40;;;;;;;;;;;;;;;18.24;62.10;98877.97;2079244;28;20395;-53
2023/04/06 02:02:42;;;;;;;;;;;;;;;18.22;62.42;98873.81;2078707;28;19929;-55
2023/04/06 02:03:42;;;;;;;;;;;;;;;18.23;62.16;98878.19;2076994;28;19932;-53
2023/04/06 02:04:44;;;;;;;;;;;;;;;18.21;62.11;98872.19;2079170;28;20432;-56
2023/04/06 02:05:44;;;;;;;;;;;;;;;18.22;62.02;98873.81;2080649;28;19924;-58
2023/04/06 02:06:46;;;;;;;;;;;;;;;18.23;62.01;98872.81;2080767;28;20816;-55
2023/04/06 02:07:46;;;;;;;;;;;;;;;18.23;62.08;98880.88;2081925;28;19933;-55
2023/04/06 02:08:49;;;;;;;;;;;;;;;18.25;61.95;98878.84;2079079;28;20056;-52
2023/04/06 02:09:50;;;;;;;;;;;;;;;18.22;62.25;98880.06;2079229;28;19929;-51
2023/04/06 02:10:52;;;;;;;;;;;;;;;18.21;62.35;98875.69;2081252;28;19933;-52
2023/04/06 02:11:53;;;;;;;;;;;;;;;18.22;62.49;98879.19;2087000;28;19933;-49
2023/04/06 02:12:54;;;;;;;;;;;;;;;18.19;62.95;98866.16;2086973;28;20009;-52
2023/04/06 02:13:55;;;;;;;;;;;;;;;18.19;62.47;98874.22;2084254;28;19933;-54
2023/04/06 02:14:57;;;;;;;;;;;;;;;18.18;62.38;98869.88;2082088;28;22460;-57
2023/04/06 02:15:57;;;;;;;;;;;;;;;18.17;62.16;98873.59;2076545;28;19983;-53
2023/04/06 02:16:59;;;;;;;;;;;;;;;18.15;62.44;98871.09;2080550;28;19932;-54
2023/04/06 02:18:00;;;;;;;;;;;;;;;18.16;62.27;98866.56;2071722;28;19960;-49
2023/04/06 02:19:01;;;;;;;;;;;;;;;18.15;62.26;98864.91;2080142;28;19959;-56
2023/04/06 02:20:02;;;;;;;;;;;;;;;18.17;62.36;98865.56;2079044;28;19929;-58
2023/04/06 02:21:04;;;;;;;;;;;;;;;18.17;62.14;98862.88;2077319;28;19927;-59
2023/04/06 02:22:04;;;;;;;;;;;;;;;18.16;62.26;98863.88;2082237;28;19929;-54
2023/04/06 02:23:06;;;;;;;;;;;;;;;18.14;62.18;98866.78;2082021;28;20632;-55
2023/04/06 02:24:08;;;;;;;;;;;;;;;18.11;62.43;98861.78;2076239;28;20031;-51
2023/04/06 02:25:10;;;;;;;;;;;;;;;18.13;61.96;98858.91;2078331;28;19936;-53
2023/04/06 02:26:10;;;;;;;;;;;;;;;18.11;62.16;98861.78;2086274;28;19931;-49
2023/04/06 02:27:11;;;;;;;;;;;;;;;18.10;62.26;98857.44;2088643;28;19955;-52
2023/04/06 02:28:12;;;;;;;;;;;;;;;18.09;62.42;98859.28;2089436;28;19951;-59
2023/04/06 02:29:13;;;;;;;;;;;;;;;18.08;62.20;98868.38;2085860;28;19929;-56
2023/04/06 02:30:14;;;;;;;;;;;;;;;18.07;62.52;98866.69;2087072;28;19964;-51
2023/04/06 02:31:16;;;;;;;;;;;;;;;18.07;62.27;98865.88;2088239;28;20568;-58
2023/04/06 02:32:16;;;;;;;;;;;;;;;18.06;62.36;98866.91;2088725;28;19924;-53
2023/04/06 02:33:18;;;;;;;;;;;;;;;18.08;62.22;98862.19;2087450;28;19931;-56
2023/04/06 02:34:18;;;;;;;;;;;;;;;18.07;62.49;98861.34;2085437;28;19964;-53
2023/04/06 02:35:20;;;;;;;;;;;;;;;18.04;62.42;98861.72;2086698;28;19925;-60
2023/04/06 02:36:20;;;;;;;;;;;;;;;18.04;62.45;98861.72;2083660;28;20030;-58
2023/04/06 02:37:23;;;;;;;;;;;;;;;18.03;62.30;98860.06;2084687;28;20035;-56
2023/04/06 02:38:23;;;;;;;;;;;;;;;18.05;62.17;98852.66;2085524;28;20050;-55
2023/04/06 02:39:26;;;;;;;;;;;;;;;18.05;62.84;98863.41;2083501;28;20012;-55
2023/04/06 02:40:26;;;;;;;;;;;;;;;18.05;62.35;98863.41;2085942;28;19968;-57
2023/04/06 02:41:28;;;;;;;;;;;;;;;18.06;62.08;98858.88;2084656;28;20414;-54
2023/04/06 02:42:29;;;;;;;;;;;;;;;18.07;62.08;98863.19;2084805;28;20375;-51
2023/04/06 02:43:30;;;;;;;;;;;;;;;18.04;62.20;98861.72;2083984;28;20568;-51
2023/04/06 02:44:31;;;;;;;;;;;;;;;18.04;62.14;98856.34;2086326;28;19970;-54
2023/04/06 02:45:32;;;;;;;;;;;;;;;18.03;62.22;98859.25;2084587;28;19936;-53
2023/04/06 02:46:33;;;;;;;;;;;;;;;18.02;62.08;98858.41;2084699;28;19924;-54
2023/04/06 02:47:35;;;;;;;;;;;;;;;18.00;62.25;98855.09;2088450;28;21142;-53
2023/04/06 02:48:36;;;;;;;;;;;;;;;17.99;62.30;98856.09;2082749;28;20098;-53
2023/04/06 02:49:38;;;;;;;;;;;;;;;18.00;62.16;98857.78;2087429;28;20019;-55
2023/04/06 02:50:39;;;;;;;;;;;;;;;17.99;62.60;98857.97;2084404;28;20047;-56
2023/04/06 02:51:40;;;;;;;;;;;;;;;17.97;62.78;98851.94;2084793;27;19932;-54
2023/04/06 02:52:41;;;;;;;;;;;;;;;17.97;62.46;98850.13;2085587;28;19936;-55
2023/04/06 02:53:43;;;;;;;;;;;;;;;17.98;62.61;98854.47;2084403;28;21720;-57
2023/04/06 02:54:44;;;;;;;;;;;;;;;17.96;62.61;98853.00;2084507;28;19956;-57
2023/04/06 02:55:46;;;;;;;;;;;;;;;17.94;63.00;98844.28;2085883;28;19928;-51
2023/04/06 02:56:46;;;;;;;;;;;;;;;17.95;62.72;98845.97;2084582;28;19932;-55
2023/04/06 02:57:48;;;;;;;;;;;;;;;17.94;62.72;98847.84;2086951;28;19925;-52
2023/04/06 02:58:49;;;;;;;;;;;;;;;17.93;62.74;98848.84;2083993;28;20264;-52
2023/04/06 02:59:50;;;;;;;;;;;;;;;17.94;62.79;98845.16;2084303;28;19935;-57
2023/04/06 03:00:51;;;;;;;;;;;;;;;17.92;62.85;98847.19;2085383;28;19967;-53
2023/04/06 03:01:52;;;;;;;;;;;;;;;17.93;62.67;98850.69;2086407;28;19924;-53
2023/04/06 03:02:53;;;;;;;;;;;;;;;17.90;62.73;98843.88;2086046;28;19956;-52
2023/04/06 03:03:54;;;;;;;;;;;;;;;17.89;62.83;98847.56;2083547;28;19935;-53
2023/04/06 03:04:55;;;;;;;;;;;;;;;17.88;62.94;98847.75;2084546;28;20556;-53
2023/04/06 03:05:58;;;;;;;;;;;;;;;17.85;63.06;98846.28;2086339;28;19928;-54
2023/04/06 03:06:58;;;;;;;;;;;;;;;17.85;62.93;98851.66;2086975;28;19970;-56
2023/04/06 03:08:00;;;;;;;;;;;;;;;17.85;62.72;98846.28;2087099;28;19928;-53
2023/04/06 03:09:00;;;;;;;;;;;;;;;17.84;63.02;98847.31;2081999;28;20016;-55
2023/04/06 03:10:04;;;;;;;;;;;;;;;17.84;63.04;98841.97;2086554;28;19931;-53
2023/04/06 03:11:04;;;;;;;;;;;;;;;17.83;62.90;98843.81;2083832;28;19924;-56
2023/04/06 03:12:06;;;;;;;;;;;;;;;17.85;62.69;98847.13;2085556;28;19980;-57
2023/04/06 03:13:07;;;;;;;;;;;;;;;17.84;62.69;98844.63;2086117;28;19940;-55
2023/04/06 03:14:08;;;;;;;;;;;;;;;17.82;62.83;98847.50;2084244;28;19987;-51
2023/04/06 03:15:09;;;;;;;;;;;;;;;17.81;62.79;98839.66;2082039;28;20689;-51
2023/04/06 03:16:11;;;;;;;;;;;;;;;17.80;62.52;98836.16;2084769;28;19933;-54
2023/04/06 03:17:11;;;;;;;;;;;;;;;17.83;62.28;98843.00;2085944;28;19928;-54
2023/04/06 03:18:13;;;;;;;;;;;;;;;17.84;62.43;98839.28;2083070;28;19929;-54
2023/04/06 03:19:13;;;;;;;;;;;;;;;17.84;62.17;98841.97;2084120;28;20710;-53
2023/04/06 03:20:15;;;;;;;;;;;;;;;17.82;62.50;98852.88;2081048;28;19932;-51
2023/04/06 03:21:15;;;;;;;;;;;;;;;17.79;62.20;98841.69;2075819;28;19940;-54
2023/04/06 03:22:17;;;;;;;;;;;;;;;17.78;62.53;98842.69;2082228;28;20012;-56
2023/04/06 03:23:20;;;;;;;;;;;;;;;17.77;62.23;98844.53;2079885;28;19972;-50
2023/04/06 03:24:22;;;;;;;;;;;;;;;17.78;62.12;98845.38;2083861;28;19932;-53
2023/04/06 03:25:24;;;;;;;;;;;;;;;17.76;62.37;98839.38;2081069;28;19929;-54
2023/04/06 03:26:25;;;;;;;;;;;;;;;17.74;62.13;98839.56;2077434;28;19998;-56
2023/04/06 03:27:26;;;;;;;;;;;;;;;17.74;62.36;98836.88;2079674;28;20027;-53
2023/04/06 03:28:27;;;;;;;;;;;;;;;17.76;62.09;98842.88;2081193;28;20398;-53
2023/04/06 03:29:28;;;;;;;;;;;;;;;17.76;61.74;98839.38;2075311;28;20012;-53
2023/04/06 03:30:29;;;;;;;;;;;;;;;17.77;62.07;98846.38;2081592;28;22529;-55
2023/04/06 03:31:30;;;;;;;;;;;;;;;17.74;61.79;98836.03;2085708;28;20810;-53
2023/04/06 03:32:31;;;;;;;;;;;;;;;17.73;61.74;98840.59;2083670;28;19939;-53
2023/04/06 03:33:32;;;;;;;;;;;;;;;17.73;61.83;98842.44;2082922;28;20364;-48
2023/04/06 03:34:33;;;;;;;;;;;;;;;17.74;61.86;98844.09;2075401;28;19997;-53
2023/04/06 03:35:34;;;;;;;;;;;;;;;17.74;61.93;98844.09;2081134;28;20314;-50
2023/04/06 03:36:36;;;;;;;;;;;;;;;17.75;62.01;98848.47;2077633;28;19936;-52
2023/04/06 03:37:36;;;;;;;;;;;;;;;17.74;62.27;98841.41;2077387;28;19935;-57
2023/04/06 03:38:38;;;;;;;;;;;;;;;17.78;62.51;98845.38;2079298;28;20409;-53
2023/04/06 03:39:38;;;;;;;;;;;;;;;17.82;62.14;98849.34;2078005;28;19968;-56
2023/04/06 03:40:42;;;;;;;;;;;;;;;17.85;62.14;98855.16;2080706;28;19928;-51
2023/04/06 03:41:44;;;;;;;;;;;;;;;17.89;62.12;98852.94;2077742;28;19929;-54
2023/04/06 03:42:45;;;;;;;;;;;;;;;17.93;61.98;98854.19;2077546;28;20682;-51
2023/04/06 03:43:46;;;;;;;;;;;;;;;17.96;61.86;98851.13;2079322;28;19933;-54
2023/04/06 03:44:47;;;;;;;;;;;;;;;18.01;62.06;98850.56;2079627;28;19932;-54
2023/04/06 03:45:48;;;;;;;;;;;;;;;18.02;61.90;98850.34;2080403;28;20443;-55
2023/04/06 03:46:49;;;;;;;;;;;;;;;18.07;61.73;98845.22;2080279;28;19932;-55
2023/04/06 03:47:50;;;;;;;;;;;;;;;18.09;61.97;98848.56;2081767;28;19963;-52
2023/04/06 03:48:51;;;;;;;;;;;;;;;18.16;61.66;98861.19;2077053;28;19932;-50
2023/04/06 03:49:52;;;;;;;;;;;;;;;18.19;62.03;98847.38;2078511;28;19985;-54
2023/04/06 03:50:54;;;;;;;;;;;;;;;18.22;61.81;98853.22;2077866;28;19936;-51
2023/04/06 03:51:56;;;;;;;;;;;;;;;18.24;61.95;98848.44;2076548;28;19936;-55
2023/04/06 03:52:57;;;;;;;;;;;;;;;18.25;61.78;98842.06;2079612;28;20677;-55
2023/04/06 03:53:58;;;;;;;;;;;;;;;18.28;61.91;98852.41;2080694;28;19935;-53
2023/04/06 03:54:59;;;;;;;;;;;;;;;18.32;61.68;98850.16;2078410;28;19928;-52
2023/04/06 03:56:01;;;;;;;;;;;;;;;18.36;61.61;98854.13;2079394;28;20023;-53
2023/04/06 03:57:03;;;;;;;;;;;;;;;18.39;61.77;98858.28;2080818;28;20002;-55
2023/04/06 03:58:03;;;;;;;;;;;;;;;18.40;61.72;98855.38;2077967;28;19925;-58
2023/04/06 03:59:05;;;;;;;;;;;;;;;18.44;61.81;98850.44;2080544;28;19925;-55
2023/04/06 04:00:06;;;;;;;;;;;;;;;18.48;61.56;98857.09;2078528;28;20014;-51
2023/04/06 04:01:07;;;;;;;;;;;;;;;18.52;61.51;98850.28;2078908;28;19924;-52
2023/04/06 04:02:08;;;;;;;;;;;;;;;18.54;61.58;98850.91;2077443;28;19959;-52
2023/04/06 04:03:10;;;;;;;;;;;;;;;18.54;61.46;98846.38;2079237;28;22180;-54
2023/04/06 04:04:10;;;;;;;;;;;;;;;18.56;61.55;98853.41;2077916;28;21730;-50
2023/04/06 04:05:12;;;;;;;;;;;;;;;18.56;61.47;98851.56;2083415;28;19999;-52
2023/04/06 04:06:12;;;;;;;;;;;;;;;18.62;61.36;98852.63;2079091;28;19928;-51
2023/04/06 04:07:14;;;;;;;;;;;;;;;18.62;61.14;98855.31;2077936;28;22636;-54
2023/04/06 04:08:15;;;;;;;;;;;;;;;18.62;61.32;98858.81;2077120;28;20010;-54
2023/04/06 04:09:16;;;;;;;;;;;;;;;18.66;61.25;98865.44;2077122;28;20474;-55
2023/04/06 04:10:17;;;;;;;;;;;;;;;18.67;61.03;98860.91;2075670;28;19955;-51
2023/04/06 04:11:20;;;;;;;;;;;;;;;18.70;61.01;98860.53;2077554;28;19929;-55
2023/04/06 04:12:20;;;;;;;;;;;;;;;18.71;61.03;98856.78;2079936;28;19935;-54
2023/04/06 04:13:22;;;;;;;;;;;;;;;18.71;61.28;98859.47;2079868;28;20002;-53
2023/04/06 04:14:22;;;;;;;;;;;;;;;18.70;61.19;98861.34;2078200;28;19960;-56
2023/04/06 04:15:24;;;;;;;;;;;;;;;18.72;61.21;98856.63;2078595;28;19929;-56
2023/04/06 04:16:24;;;;;;;;;;;;;;;18.74;60.87;98859.13;2078955;28;19928;-50
2023/04/06 04:17:26;;;;;;;;;;;;;;;18.77;60.91;98856.03;2078759;28;19935;-54
2023/04/06 04:18:27;;;;;;;;;;;;;;;18.78;60.86;98860.38;2078165;28;21568;-53
2023/04/06 04:19:28;;;;;;;;;;;;;;;18.79;60.87;98859.34;2076762;28;20444;-52
2023/04/06 04:20:29;;;;;;;;;;;;;;;18.83;60.82;98870.53;2076796;28;20016;-51
2023/04/06 04:21:31;;;;;;;;;;;;;;;18.82;60.90;98867.00;2077809;28;19929;-51
2023/04/06 04:22:31;;;;;;;;;;;;;;;18.82;61.03;98866.19;2078737;28;19933;-56
2023/04/06 04:23:33;;;;;;;;;;;;;;;18.83;60.84;98873.22;2076482;28;20671;-53
2023/04/06 04:24:33;;;;;;;;;;;;;;;18.83;60.61;98868.66;2076954;28;20963;-54
2023/04/06 04:25:35;;;;;;;;;;;;;;;18.83;60.69;98865.97;2082727;28;19928;-51
2023/04/06 04:26:37;;;;;;;;;;;;;;;18.84;60.50;98875.72;2078212;28;19928;-54
2023/04/06 04:27:38;;;;;;;;;;;;;;;18.84;60.72;98870.34;2086409;28;20483;-55
2023/04/06 04:28:39;;;;;;;;;;;;;;;18.86;60.91;98876.34;2086040;28;19965;-52
2023/04/06 04:29:40;;;;;;;;;;;;;;;18.87;60.52;98874.50;2087217;28;19932;-54
2023/04/06 04:30:41;;;;;;;;;;;;;;;18.87;60.73;98875.31;2085984;28;20513;-56
2023/04/06 04:31:42;;;;;;;;;;;;;;;18.92;60.67;98875.53;2085741;28;19933;-51
2023/04/06 04:32:43;;;;;;;;;;;;;;;18.92;60.57;98878.22;2085346;28;19929;-54
2023/04/06 04:33:45;;;;;;;;;;;;;;;18.92;60.73;98875.53;2086486;28;19925;-58
2023/04/06 04:34:45;;;;;;;;;;;;;;;18.97;60.19;98872.25;2087862;28;19928;-54
2023/04/06 04:35:47;;;;;;;;;;;;;;;18.94;60.15;98878.00;2084737;28;19928;-53
2023/04/06 04:36:47;;;;;;;;;;;;;;;18.95;60.52;98874.31;2086801;28;19975;-54
2023/04/06 04:37:49;;;;;;;;;;;;;;;18.94;60.33;98880.72;2087023;28;19939;-54
2023/04/06 04:38:50;;;;;;;;;;;;;;;18.93;60.32;98882.56;2086112;28;20295;-55
2023/04/06 04:39:51;;;;;;;;;;;;;;;18.93;60.45;98879.88;2086243;28;19937;-54
2023/04/06 04:40:52;;;;;;;;;;;;;;;18.94;60.57;98880.72;2086113;28;19999;-54
2023/04/06 04:41:55;;;;;;;;;;;;;;;18.93;60.45;98879.06;2086437;28;19969;-55
2023/04/06 04:42:55;;;;;;;;;;;;;;;18.92;60.32;98886.28;2086617;28;20519;-63
2023/04/06 04:43:57;;;;;;;;;;;;;;;18.93;60.19;98877.19;2087634;28;19948;-57
2023/04/06 04:44:57;;;;;;;;;;;;;;;18.93;60.29;98879.88;2085679;28;19970;-54
2023/04/06 04:45:59;;;;;;;;;;;;;;;18.94;60.32;98883.41;2083629;28;19994;-51
2023/04/06 04:46:59;;;;;;;;;;;;;;;18.93;60.16;98881.75;2084220;28;19925;-51
2023/04/06 04:48:01;;;;;;;;;;;;;;;18.93;60.21;98879.88;2086944;28;19977;-54
2023/04/06 04:49:01;;;;;;;;;;;;;;;18.92;60.41;98886.28;2087211;28;19975;-53
2023/04/06 04:50:03;;;;;;;;;;;;;;;18.92;60.04;98886.28;2083725;28;19928;-51
2023/04/06 04:51:04;;;;;;;;;;;;;;;18.93;60.42;98879.88;2089077;28;19924;-54
2023/04/06 04:52:05;;;;;;;;;;;;;;;18.92;60.47;98889.00;2085722;28;19972;-48
2023/04/06 04:53:06;;;;;;;;;;;;;;;18.94;60.63;98889.63;2088786;28;19968;-54
2023/04/06 04:54:07;;;;;;;;;;;;;;;18.92;60.31;98886.28;2085575;28;19928;-57
2023/04/06 04:55:08;;;;;;;;;;;;;;;18.92;60.55;98889.00;2085559;28;20334;-56
2023/04/06 04:56:10;;;;;;;;;;;;;;;18.92;60.60;98888.16;2087388;28;19925;-51
2023/04/06 04:57:11;;;;;;;;;;;;;;;18.91;60.41;98894.53;2085744;28;20026;-57
2023/04/06 04:58:16;;;;;;;;;;;;;;;18.92;60.48;98898.91;2084760;28;19932;-54
2023/04/06 04:59:16;;;;;;;;;;;;;;;18.93;60.37;98892.50;2076897;28;19928;-56
2023/04/06 05:00:18;;;;;;;;;;;;;;;18.91;60.36;98895.38;2076484;28;19929;-54
2023/04/06 05:01:19;;;;;;;;;;;;;;;18.91;60.31;98894.53;2076678;28;19936;-55
2023/04/06 05:02:20;;;;;;;;;;;;;;;18.90;60.58;98895.59;2076353;28;19928;-53
2023/04/06 05:03:23;;;;;;;;;;;;;;;18.91;60.22;98892.69;2075294;28;19976;-56
2023/04/06 05:04:24;;;;;;;;;;;;;;;18.89;60.49;98897.44;2077877;28;19929;-53
2023/04/06 05:05:25;;;;;;;;;;;;;;;18.90;60.33;98896.41;2077866;28;19924;-53
2023/04/06 05:06:26;;;;;;;;;;;;;;;18.90;60.35;98904.47;2079016;28;19929;-50
2023/04/06 05:07:27;;;;;;;;;;;;;;;18.89;60.51;98902.81;2077657;28;19939;-51
2023/04/06 05:08:28;;;;;;;;;;;;;;;18.89;60.24;98902.00;2076046;28;19933;-53
2023/04/06 05:09:29;;;;;;;;;;;;;;;18.89;60.23;98913.56;2076446;28;19964;-51
2023/04/06 05:10:31;;;;;;;;;;;;;;;18.89;60.42;98908.19;2079085;28;19929;-50
2023/04/06 05:11:31;;;;;;;;;;;;;;;18.88;60.18;98909.22;2076422;28;20512;-55
2023/04/06 05:12:35;;;;;;;;;;;;;;;18.88;60.19;98911.06;2077826;28;19935;-50
2023/04/06 05:13:35;;;;;;;;;;;;;;;18.89;60.15;98908.19;2082371;28;19960;-53
2023/04/06 05:14:37;;;;;;;;;;;;;;;18.87;60.34;98912.94;2080026;28;19941;-52
2023/04/06 05:15:41;;;;;;;;;;;;;;;18.88;60.52;98906.53;2078170;28;20622;-52
2023/04/06 05:16:42;;;;;;;;;;;;;;;18.87;60.23;98909.44;2076719;28;20063;-54
2023/04/06 05:17:43;;;;;;;;;;;;;;;18.87;60.29;98907.56;2075253;28;19968;-55
2023/04/06 05:18:45;;;;;;;;;;;;;;;18.87;60.28;98904.88;2078338;28;20615;-49
2023/04/06 05:19:46;;;;;;;;;;;;;;;18.87;60.47;98904.88;2079401;28;19929;-55